Time;durP1;ratioP1;P1;durP2;ratioP2;P2;SDS_P1;SDS_P2;PMS_P1;PMS_P2;Temp;Humidity;BMP_temperature;BMP_pressure;BME280_temperature;BME280_humidity;BME280_pressure;Samples;Min_cycle;Max_cycle;Signal;HPM_P1;HPM_P2
2022/07/27 00:00:12;;;;;;;0.50;0.40;;;14.90;99.90;;;;;;5137831;27;20981;-82
2022/07/27 00:02:40;;;;;;;0.50;0.40;;;14.80;99.90;;;;;;5138171;27;20536;-82
2022/07/27 00:05:08;;;;;;;0.50;0.40;;;14.80;99.90;;;;;;5137697;27;20535;-79
2022/07/27 00:07:35;;;;;;;0.50;0.40;;;14.80;99.90;;;;;;5138192;27;20483;-80
2022/07/27 00:10:01;;;;;;;0.50;0.40;;;14.70;99.90;;;;;;5136833;27;20873;-80
2022/07/27 00:12:28;;;;;;;0.50;0.40;;;14.70;99.90;;;;;;5136511;27;20485;-83
2022/07/27 00:14:57;;;;;;;0.50;0.40;;;14.60;99.90;;;;;;5137289;27;20862;-81
2022/07/27 00:17:24;;;;;;;0.50;0.40;;;14.50;99.90;;;;;;5137890;27;20447;-81
2022/07/27 00:19:53;;;;;;;0.50;0.40;;;14.50;99.90;;;;;;5137798;27;20911;-82
2022/07/27 00:22:21;;;;;;;0.50;0.40;;;14.40;99.90;;;;;;5137691;27;20520;-80
2022/07/27 00:24:48;;;;;;;0.50;0.40;;;14.50;99.90;;;;;;5137200;27;20456;-80
2022/07/27 00:27:15;;;;;;;0.50;0.40;;;14.50;99.90;;;;;;5137652;27;20499;-82
2022/07/27 00:29:42;;;;;;;0.50;0.40;;;14.40;99.90;;;;;;5136006;27;20432;-83
2022/07/27 00:32:09;;;;;;;0.50;0.40;;;14.40;99.90;;;;;;5136793;27;20556;-83
2022/07/27 00:34:36;;;;;;;0.50;0.40;;;14.40;99.90;;;;;;5137773;27;20437;-82
2022/07/27 00:37:04;;;;;;;0.50;0.40;;;14.30;99.90;;;;;;5136419;27;20441;-83
2022/07/27 00:39:31;;;;;;;0.50;0.40;;;14.30;99.90;;;;;;5136330;27;20861;-84
2022/07/27 00:41:58;;;;;;;0.50;0.40;;;14.40;99.90;;;;;;5136247;27;20992;-84
2022/07/27 00:44:26;;;;;;;0.50;0.40;;;14.30;99.90;;;;;;5136437;27;21045;-83
2022/07/27 00:46:53;;;;;;;0.50;0.40;;;14.30;99.90;;;;;;5136623;27;20448;-84
2022/07/27 00:49:20;;;;;;;0.50;0.40;;;14.30;99.90;;;;;;5137537;27;20461;-82
2022/07/27 00:51:47;;;;;;;0.50;0.40;;;14.30;99.90;;;;;;5138952;27;20508;-84
2022/07/27 00:54:16;;;;;;;0.50;0.40;;;14.30;99.90;;;;;;5144832;27;20481;-84
2022/07/27 00:56:43;;;;;;;0.50;0.40;;;14.30;99.90;;;;;;5146048;27;20457;-82
2022/07/27 00:59:11;;;;;;;0.50;0.40;;;14.30;99.90;;;;;;5143355;27;20460;-82
2022/07/27 01:01:38;;;;;;;0.50;0.40;;;14.30;99.90;;;;;;5140254;27;20855;-84
2022/07/27 01:04:05;;;;;;;0.50;0.40;;;14.30;99.90;;;;;;5141219;27;20825;-80
2022/07/27 01:06:33;;;;;;;0.50;0.40;;;14.30;99.90;;;;;;5140267;27;20429;-83
2022/07/27 01:11:42;;;;;;;0.50;0.40;;;14.40;99.90;;;;;;5136325;27;20417;-83
2022/07/27 01:14:12;;;;;;;0.50;0.40;;;14.40;99.90;;;;;;5136704;27;20520;-84
2022/07/27 01:16:39;;;;;;;0.50;0.40;;;14.40;99.90;;;;;;5135222;27;20525;-83
2022/07/27 01:19:06;;;;;;;0.50;0.40;;;14.40;99.90;;;;;;5136323;27;20452;-82
2022/07/27 01:21:35;;;;;;;0.50;0.40;;;14.30;99.90;;;;;;5136441;27;20520;-84
2022/07/27 01:24:02;;;;;;;0.50;0.40;;;14.30;99.90;;;;;;5136465;27;20538;-83
2022/07/27 01:26:29;;;;;;;0.50;0.40;;;14.30;99.90;;;;;;5135475;27;20448;-85
2022/07/27 01:28:57;;;;;;;0.50;0.40;;;14.30;99.90;;;;;;5137029;27;20476;-81
2022/07/27 01:31:24;;;;;;;0.50;0.40;;;14.30;99.90;;;;;;5135400;27;20465;-82
2022/07/27 01:33:51;;;;;;;0.50;0.40;;;14.40;99.90;;;;;;5136078;27;20556;-80
2022/07/27 01:36:18;;;;;;;0.50;0.40;;;14.40;99.90;;;;;;5136349;27;20473;-83
2022/07/27 01:38:47;;;;;;;0.50;0.50;;;14.30;99.90;;;;;;5135776;27;20861;-82
2022/07/27 01:41:14;;;;;;;0.50;0.40;;;14.20;99.90;;;;;;5136285;27;20970;-84
2022/07/27 01:43:41;;;;;;;0.50;0.40;;;14.20;99.90;;;;;;5136493;27;20526;-82
2022/07/27 01:46:08;;;;;;;0.50;0.40;;;14.20;99.90;;;;;;5136187;27;20469;-81
2022/07/27 01:48:34;;;;;;;0.50;0.40;;;14.20;99.90;;;;;;5136738;27;20806;-83
2022/07/27 01:51:01;;;;;;;0.50;0.40;;;14.10;99.90;;;;;;5138305;27;20941;-83
2022/07/27 01:53:28;;;;;;;0.50;0.40;;;14.00;99.90;;;;;;5139470;27;20481;-84
2022/07/27 01:55:56;;;;;;;0.50;0.40;;;13.90;99.90;;;;;;5140516;27;20470;-83
2022/07/27 01:58:23;;;;;;;0.50;0.40;;;13.80;99.90;;;;;;5140283;27;20579;-83
2022/07/27 02:00:51;;;;;;;0.50;0.40;;;13.70;99.90;;;;;;5139889;27;20192;-83
2022/07/27 02:03:18;;;;;;;0.50;0.40;;;13.60;99.90;;;;;;5140317;27;20644;-84
2022/07/27 02:05:45;;;;;;;0.50;0.40;;;13.50;99.90;;;;;;5140260;27;20256;-83
2022/07/27 02:08:12;;;;;;;0.50;0.40;;;13.50;99.90;;;;;;5139813;27;20535;-80
2022/07/27 02:12:34;;;;;;;0.50;0.40;;;13.50;99.90;;;;;;5139589;27;20244;-82
2022/07/27 02:13:27;;;;;;;0.50;0.40;;;13.40;99.90;;;;;;5139112;27;20700;-83
2022/07/27 02:15:55;;;;;;;0.50;0.40;;;13.30;99.90;;;;;;5140056;27;20196;-84
2022/07/27 02:18:23;;;;;;;0.50;0.40;;;13.20;99.90;;;;;;5140469;27;20202;-82
2022/07/27 02:20:50;;;;;;;0.50;0.40;;;13.20;99.90;;;;;;5139148;27;20283;-83
2022/07/27 02:23:17;;;;;;;0.50;0.40;;;13.20;99.90;;;;;;5139275;27;20293;-84
2022/07/27 02:25:44;;;;;;;0.50;0.40;;;13.10;99.90;;;;;;5139693;27;20291;-83
2022/07/27 02:28:10;;;;;;;0.50;0.40;;;13.00;99.90;;;;;;5139949;27;20282;-82
2022/07/27 02:30:39;;;;;;;0.50;0.40;;;13.00;99.90;;;;;;5139864;27;20663;-84
2022/07/27 02:33:07;;;;;;;0.50;0.40;;;12.90;99.90;;;;;;5138830;27;20311;-82
2022/07/27 02:35:34;;;;;;;0.50;0.40;;;12.80;99.90;;;;;;5139165;27;20195;-84
2022/07/27 02:38:01;;;;;;;0.50;0.40;;;12.80;99.90;;;;;;5138597;27;20286;-84
2022/07/27 02:40:28;;;;;;;0.50;0.40;;;12.80;99.90;;;;;;5139259;27;20195;-83
2022/07/27 02:42:55;;;;;;;0.50;0.40;;;12.70;99.90;;;;;;5138616;27;20742;-84
2022/07/27 02:45:22;;;;;;;0.50;0.40;;;12.70;99.90;;;;;;5138854;27;20597;-82
2022/07/27 02:47:50;;;;;;;0.50;0.40;;;12.70;99.90;;;;;;5139116;27;20198;-83
2022/07/27 02:50:17;;;;;;;0.50;0.40;;;12.70;99.90;;;;;;5138725;27;20251;-80
2022/07/27 02:52:44;;;;;;;0.50;0.40;;;12.60;99.90;;;;;;5138940;27;20251;-84
2022/07/27 02:55:10;;;;;;;0.50;0.40;;;12.60;99.90;;;;;;5139091;27;20192;-82
2022/07/27 02:57:39;;;;;;;0.50;0.40;;;12.50;99.90;;;;;;5139017;27;20192;-84
2022/07/27 03:00:10;;;;;;;0.50;0.40;;;12.50;99.90;;;;;;5140969;27;20188;-83
2022/07/27 03:02:37;;;;;;;0.50;0.40;;;12.40;99.90;;;;;;5143926;27;20255;-84
2022/07/27 03:05:07;;;;;;;0.50;0.50;;;12.30;99.90;;;;;;5149624;27;20211;-80
2022/07/27 03:07:34;;;;;;;0.50;0.40;;;12.30;99.90;;;;;;5149220;27;20231;-83
2022/07/27 03:10:01;;;;;;;0.50;0.50;;;12.30;99.90;;;;;;5138512;27;20192;-84
2022/07/27 03:12:28;;;;;;;0.50;0.40;;;12.30;99.90;;;;;;5137996;27;20298;-84
2022/07/27 03:14:56;;;;;;;0.50;0.40;;;12.30;99.90;;;;;;5138305;27;20283;-84
2022/07/27 03:17:23;;;;;;;0.50;0.40;;;12.30;99.90;;;;;;5138776;27;20294;-84
2022/07/27 03:19:49;;;;;;;0.50;0.40;;;12.30;99.90;;;;;;5138303;27;20250;-84
2022/07/27 03:22:18;;;;;;;0.50;0.40;;;12.20;99.90;;;;;;5138074;27;20196;-84
2022/07/27 03:24:45;;;;;;;0.50;0.40;;;12.20;99.90;;;;;;5139683;27;20854;-82
2022/07/27 03:27:12;;;;;;;0.50;0.40;;;12.20;99.90;;;;;;5138097;27;20195;-81
2022/07/27 03:29:39;;;;;;;0.50;0.40;;;12.20;99.90;;;;;;5138696;27;20200;-84
2022/07/27 03:32:06;;;;;;;0.50;0.40;;;12.10;99.90;;;;;;5137630;27;20276;-83
2022/07/27 03:34:33;;;;;;;0.50;0.40;;;12.10;99.90;;;;;;5137727;27;20636;-83
2022/07/27 03:37:00;;;;;;;0.50;0.40;;;12.10;99.90;;;;;;5138532;27;20261;-84
2022/07/27 03:39:28;;;;;;;0.50;0.40;;;12.10;99.90;;;;;;5138012;27;20286;-84
2022/07/27 03:41:55;;;;;;;0.50;0.40;;;12.00;99.90;;;;;;5137452;27;20289;-83
2022/07/27 03:44:22;;;;;;;0.50;0.40;;;12.00;99.90;;;;;;5138394;27;20232;-84
2022/07/27 03:46:49;;;;;;;0.50;0.40;;;12.00;99.90;;;;;;5137555;27;20690;-82
2022/07/27 03:49:16;;;;;;;0.50;0.40;;;11.90;99.90;;;;;;5138292;27;20556;-81
2022/07/27 03:51:43;;;;;;;0.50;0.40;;;11.90;99.90;;;;;;5137869;27;20238;-82
2022/07/27 03:54:10;;;;;;;0.50;0.40;;;11.90;99.90;;;;;;5139021;27;20255;-81
2022/07/27 03:56:38;;;;;;;0.50;0.40;;;11.90;99.90;;;;;;5146905;27;20256;-81
2022/07/27 03:59:05;;;;;;;0.50;0.40;;;11.90;99.90;;;;;;5151009;27;20279;-80
2022/07/27 04:01:32;;;;;;;0.50;0.40;;;12.00;99.90;;;;;;5151346;27;20191;-81
2022/07/27 04:03:59;;;;;;;0.50;0.40;;;11.90;99.90;;;;;;5151663;27;20208;-81
2022/07/27 04:06:26;;;;;;;0.50;0.40;;;11.90;99.90;;;;;;5151952;27;20206;-80
2022/07/27 04:08:52;;;;;;;0.50;0.40;;;11.90;99.90;;;;;;5151446;27;20625;-80
2022/07/27 04:11:19;;;;;;;0.50;0.40;;;11.90;99.90;;;;;;5151502;27;20259;-80
2022/07/27 04:13:50;;;;;;;0.50;0.40;;;11.90;99.90;;;;;;5149946;27;20242;-80
2022/07/27 04:16:17;;;;;;;0.50;0.40;;;11.90;99.90;;;;;;5151822;27;20202;-79
2022/07/27 04:18:44;;;;;;;0.50;0.40;;;11.90;99.90;;;;;;5151706;27;20255;-79
2022/07/27 04:21:10;;;;;;;0.50;0.40;;;11.90;99.90;;;;;;5150797;27;20259;-80
2022/07/27 04:23:37;;;;;;;0.50;0.40;;;11.90;99.90;;;;;;5150824;27;20222;-80
2022/07/27 04:26:05;;;;;;;0.50;0.40;;;12.00;99.90;;;;;;5150575;27;20222;-79
2022/07/27 04:28:32;;;;;;;0.50;0.40;;;12.00;99.90;;;;;;5145109;27;20192;-79
2022/07/27 04:31:00;;;;;;;0.50;0.40;;;12.00;99.90;;;;;;5139058;27;20195;-81
2022/07/27 04:33:27;;;;;;;0.50;0.40;;;12.00;99.90;;;;;;5138315;27;20223;-79
2022/07/27 04:35:54;;;;;;;0.50;0.40;;;12.00;99.90;;;;;;5139725;27;20201;-79
2022/07/27 04:38:21;;;;;;;0.50;0.40;;;12.00;99.90;;;;;;5139851;27;20195;-79
2022/07/27 04:40:48;;;;;;;0.50;0.40;;;12.00;99.90;;;;;;5139561;27;20639;-82
2022/07/27 04:43:15;;;;;;;0.50;0.40;;;12.10;99.90;;;;;;5139379;27;20239;-80
2022/07/27 04:45:41;;;;;;;0.50;0.40;;;12.20;99.90;;;;;;5139989;27;20200;-79
2022/07/27 04:48:10;;;;;;;0.50;0.40;;;12.20;99.90;;;;;;5138850;27;20259;-82
2022/07/27 04:50:41;;;;;;;0.50;0.40;;;12.30;99.90;;;;;;5139178;27;20198;-81
2022/07/27 04:53:09;;;;;;;0.50;0.40;;;12.30;99.90;;;;;;5137511;27;20271;-80
2022/07/27 04:55:36;;;;;;;0.50;0.40;;;12.30;99.90;;;;;;5138629;27;20245;-81
2022/07/27 04:58:03;;;;;;;0.50;0.40;;;12.40;99.90;;;;;;5143946;27;20465;-81
2022/07/27 05:00:30;;;;;;;0.50;0.40;;;12.40;99.90;;;;;;5143658;27;20672;-81
2022/07/27 05:02:57;;;;;;;0.50;0.40;;;12.40;99.90;;;;;;5140714;27;20243;-82
2022/07/27 05:05:25;;;;;;;0.50;0.40;;;12.50;99.90;;;;;;5141834;27;20192;-82
2022/07/27 05:07:53;;;;;;;0.50;0.40;;;12.60;99.90;;;;;;5141636;27;20227;-82
2022/07/27 05:10:20;;;;;;;0.50;0.40;;;12.70;99.90;;;;;;5138833;27;20196;-82
2022/07/27 05:12:47;;;;;;;0.50;0.40;;;12.70;99.90;;;;;;5138713;27;20480;-82
2022/07/27 05:15:14;;;;;;;0.50;0.40;;;12.80;99.90;;;;;;5137853;27;20303;-83
2022/07/27 05:17:41;;;;;;;0.50;0.40;;;12.90;99.90;;;;;;5139205;27;20521;-83
2022/07/27 05:20:09;;;;;;;0.50;0.40;;;12.90;99.90;;;;;;5140128;27;20260;-83
2022/07/27 05:22:37;;;;;;;0.50;0.40;;;13.00;99.90;;;;;;5138149;27;20638;-82
2022/07/27 05:25:05;;;;;;;0.50;0.40;;;13.10;99.90;;;;;;5145647;27;20213;-80
2022/07/27 05:27:32;;;;;;;0.50;0.40;;;13.10;99.90;;;;;;5154012;27;20806;-80
2022/07/27 05:29:59;;;;;;;0.50;0.40;;;13.20;99.90;;;;;;5153814;27;20187;-79
2022/07/27 05:32:26;;;;;;;0.50;0.40;;;13.30;99.90;;;;;;5154682;27;20208;-81
2022/07/27 05:34:52;;;;;;;0.50;0.40;;;13.40;99.90;;;;;;5150410;27;20242;-80
2022/07/27 05:37:19;;;;;;;0.50;0.40;;;13.50;99.90;;;;;;5155675;27;20195;-80
2022/07/27 05:39:48;;;;;;;0.50;0.40;;;13.70;99.90;;;;;;5156794;27;20207;-81
2022/07/27 05:42:14;;;;;;;0.50;0.40;;;13.80;99.90;;;;;;5158347;27;20200;-81
2022/07/27 05:44:41;;;;;;;0.50;0.40;;;14.00;99.90;;;;;;5157293;27;20269;-81
2022/07/27 05:47:08;;;;;;;0.50;0.40;;;14.00;99.90;;;;;;5152601;27;20457;-80
2022/07/27 05:49:35;;;;;;;0.50;0.40;;;14.20;99.90;;;;;;5150755;27;20457;-78
2022/07/27 05:52:02;;;;;;;0.50;0.40;;;14.30;99.90;;;;;;5132749;27;20465;-83
2022/07/27 05:54:29;;;;;;;0.50;0.40;;;14.50;99.90;;;;;;5142911;27;20553;-83
2022/07/27 05:56:57;;;;;;;0.50;0.40;;;14.70;99.90;;;;;;5142556;27;20473;-82
2022/07/27 05:59:24;;;;;;;0.50;0.40;;;14.80;99.90;;;;;;5143094;27;20472;-83
2022/07/27 06:01:51;;;;;;;0.50;0.40;;;15.00;99.90;;;;;;5143079;27;20438;-84
2022/07/27 06:04:18;;;;;;;0.50;0.40;;;15.10;99.90;;;;;;5142672;27;20495;-83
2022/07/27 06:09:29;;;;;;;0.50;0.40;;;15.50;99.90;;;;;;5142338;27;20770;-82
2022/07/27 06:11:58;;;;;;;0.50;0.40;;;15.80;99.90;;;;;;5141503;27;20441;-84
2022/07/27 06:14:25;;;;;;;0.50;0.30;;;16.60;99.90;;;;;;5144163;27;20467;-84
2022/07/27 06:16:52;;;;;;;0.50;0.40;;;18.10;99.90;;;;;;5145284;27;20465;-82
2022/07/27 06:19:19;;;;;;;0.50;0.40;;;19.70;99.90;;;;;;5144656;27;20425;-83
2022/07/27 06:21:45;;;;;;;0.50;0.40;;;21.50;99.90;;;;;;5144106;27;20468;-84
2022/07/27 06:24:13;;;;;;;0.50;0.37;;;23.30;99.90;;;;;;5143050;27;21166;-84
2022/07/27 06:26:40;;;;;;;0.50;0.40;;;24.80;99.90;;;;;;5142459;27;20478;-85
2022/07/27 06:29:08;;;;;;;0.50;0.30;;;25.90;95.90;;;;;;5138522;27;20528;-82
2022/07/27 06:31:35;;;;;;;0.50;0.30;;;26.90;88.90;;;;;;5138424;27;21034;-85
2022/07/27 06:34:02;;;;;;;0.50;0.30;;;27.90;83.70;;;;;;5139411;27;20902;-84
2022/07/27 06:36:29;;;;;;;0.50;0.30;;;28.70;78.00;;;;;;5138125;27;20506;-83
2022/07/27 06:38:56;;;;;;;0.50;0.30;;;29.40;72.20;;;;;;5140349;27;20529;-84
2022/07/27 06:41:23;;;;;;;0.50;0.30;;;29.90;70.30;;;;;;5138731;27;20433;-85
2022/07/27 06:43:50;;;;;;;0.50;0.30;;;30.40;64.60;;;;;;5125635;27;20462;-84
2022/07/27 06:46:18;;;;;;;0.50;0.30;;;31.00;64.50;;;;;;5118233;28;21010;-84
2022/07/27 06:48:45;;;;;;;0.50;0.30;;;31.80;60.40;;;;;;5118823;28;20810;-83
2022/07/27 06:51:12;;;;;;;0.50;0.30;;;32.20;58.60;;;;;;5119042;28;20443;-82
2022/07/27 06:53:38;;;;;;;2.70;0.80;;;32.80;57.00;;;;;;5118406;28;20608;-81
2022/07/27 06:56:07;;;;;;;0.50;0.30;;;32.80;56.70;;;;;;5118377;28;20859;-81
2022/07/27 06:58:36;;;;;;;0.50;0.30;;;33.10;55.60;;;;;;5117791;28;20480;-81
2022/07/27 07:01:03;;;;;;;0.50;0.30;;;33.00;54.70;;;;;;5116788;28;21126;-80
2022/07/27 07:03:31;;;;;;;0.50;0.30;;;33.00;55.00;;;;;;5116240;28;20493;-80
2022/07/27 07:05:58;;;;;;;0.50;0.30;;;33.40;53.40;;;;;;5117253;28;20933;-81
2022/07/27 07:08:25;;;;;;;0.50;0.40;;;32.70;53.40;;;;;;5118675;27;20511;-79
2022/07/27 07:10:52;;;;;;;0.50;0.30;;;32.30;54.40;;;;;;5121225;28;20438;-80
2022/07/27 07:13:19;;;;;;;0.50;0.30;;;31.70;55.10;;;;;;5119473;28;20537;-81
2022/07/27 07:15:46;;;;;;;0.50;0.30;;;31.50;55.70;;;;;;5118235;28;20548;-82
2022/07/27 07:18:14;;;;;;;0.50;0.30;;;31.20;55.10;;;;;;5118621;28;20513;-80
2022/07/27 07:20:42;;;;;;;0.50;0.30;;;29.60;56.10;;;;;;5119867;28;20852;-80
2022/07/27 07:23:09;;;;;;;0.50;0.30;;;28.00;59.10;;;;;;5115368;28;20482;-81
2022/07/27 07:25:37;;;;;;;0.50;0.40;;;27.90;60.90;;;;;;5116242;28;20434;-81
2022/07/27 07:28:05;;;;;;;0.50;0.30;;;28.20;60.30;;;;;;5116254;27;20531;-80
2022/07/27 07:30:32;;;;;;;0.50;0.30;;;27.80;60.90;;;;;;5116145;28;20431;-78
2022/07/27 07:32:59;;;;;;;0.50;0.30;;;27.40;62.10;;;;;;5115609;28;20557;-80
2022/07/27 07:35:27;;;;;;;0.50;0.30;;;27.10;62.90;;;;;;5115688;27;20537;-80
2022/07/27 07:37:55;;;;;;;0.50;0.30;;;28.20;64.00;;;;;;5116030;28;20449;-82
2022/07/27 07:40:22;;;;;;;0.77;0.77;;;29.70;61.00;;;;;;5125732;27;20538;-81
2022/07/27 07:42:52;;;;;;;0.50;0.30;;;30.70;58.10;;;;;;5136258;27;20464;-81
2022/07/27 07:45:20;;;;;;;0.50;0.30;;;30.80;57.90;;;;;;5126675;27;20449;-81
2022/07/27 07:47:47;;;;;;;0.50;0.30;;;29.90;57.20;;;;;;5113897;28;20521;-81
2022/07/27 07:50:14;;;;;;;0.60;0.60;;;29.20;59.50;;;;;;5115795;28;20522;-80
2022/07/27 07:52:41;;;;;;;0.50;0.30;;;30.50;59.30;;;;;;5114636;28;20490;-81
2022/07/27 07:55:10;;;;;;;0.50;0.40;;;31.60;55.40;;;;;;5115326;28;20502;-82
2022/07/27 07:57:37;;;;;;;0.50;0.30;;;32.50;54.50;;;;;;5115293;28;20434;-80
2022/07/27 08:00:06;;;;;;;0.50;0.30;;;33.00;53.20;;;;;;5115499;28;20942;-79
2022/07/27 08:02:33;;;;;;;0.47;0.30;;;34.00;52.30;;;;;;5135836;27;20472;-80
2022/07/27 08:05:00;;;;;;;0.50;0.30;;;34.40;50.80;;;;;;5125981;27;20526;-79
2022/07/27 08:07:26;;;;;;;0.50;0.30;;;34.20;49.50;;;;;;5138199;27;20445;-77
2022/07/27 08:09:53;;;;;;;0.50;0.30;;;34.00;49.80;;;;;;5136852;27;20818;-81
2022/07/27 08:12:21;;;;;;;0.50;0.30;;;32.30;49.80;;;;;;5135336;27;20441;-82
2022/07/27 08:14:48;;;;;;;0.50;0.30;;;31.10;52.40;;;;;;5134818;27;21077;-79
2022/07/27 08:17:15;;;;;;;0.50;0.30;;;29.70;53.60;;;;;;5136603;27;20455;-80
2022/07/27 08:19:42;;;;;;;0.50;0.30;;;28.00;55.00;;;;;;5138579;27;20441;-79
2022/07/27 08:22:09;;;;;;;0.60;0.40;;;27.10;57.00;;;;;;5137295;27;20502;-81
2022/07/27 08:24:36;;;;;;;0.50;0.30;;;26.50;58.90;;;;;;5138805;27;20469;-80
2022/07/27 08:27:03;;;;;;;0.50;0.40;;;25.60;60.70;;;;;;5136609;27;20619;-80
2022/07/27 08:29:32;;;;;;;1.33;1.23;;;25.00;62.80;;;;;;5135701;27;20438;-81
2022/07/27 08:31:58;;;;;;;0.50;0.30;;;24.20;64.80;;;;;;5134991;27;20444;-81
2022/07/27 08:34:25;;;;;;;0.50;0.30;;;23.60;65.40;;;;;;5136170;27;20477;-79
2022/07/27 08:36:52;;;;;;;0.50;0.30;;;23.20;68.40;;;;;;5136649;27;20815;-78
2022/07/27 08:39:19;;;;;;;0.50;0.30;;;22.90;68.60;;;;;;5137502;27;20426;-80
2022/07/27 08:41:46;;;;;;;0.50;0.30;;;22.60;69.20;;;;;;5136585;27;20516;-79
2022/07/27 08:44:14;;;;;;;0.50;0.30;;;22.30;68.60;;;;;;5137119;27;20460;-80
2022/07/27 08:46:44;;;;;;;0.50;0.40;;;22.30;69.50;;;;;;5136605;27;20429;-81
2022/07/27 08:49:13;;;;;;;0.50;0.40;;;22.50;68.40;;;;;;5136078;27;20504;-80
2022/07/27 08:51:40;;;;;;;0.50;0.30;;;22.80;67.90;;;;;;5135884;27;20485;-80
2022/07/27 08:54:08;;;;;;;0.50;0.30;;;23.30;70.10;;;;;;5135554;27;20461;-79
2022/07/27 08:56:35;;;;;;;0.50;0.30;;;24.80;69.10;;;;;;5138754;27;20436;-79
2022/07/27 08:59:03;;;;;;;0.50;0.30;;;27.20;65.40;;;;;;5135560;27;20562;-80
2022/07/27 09:01:31;;;;;;;0.50;0.30;;;29.70;59.20;;;;;;5137308;27;20448;-81
2022/07/27 09:04:00;;;;;;;0.50;0.30;;;31.00;54.40;;;;;;5139764;27;20457;-80
2022/07/27 09:06:44;;;;;;;0.50;0.30;;;31.50;54.00;;;;;;5136369;27;20433;-80
2022/07/27 09:09:12;;;;;;;0.80;0.40;;;30.70;52.80;;;;;;5136436;27;20424;-79
2022/07/27 09:11:40;;;;;;;0.50;0.30;;;29.20;54.20;;;;;;5135473;27;20436;-80
2022/07/27 09:14:09;;;;;;;0.50;0.30;;;27.80;56.50;;;;;;5136081;27;20456;-81
2022/07/27 09:16:36;;;;;;;0.50;0.30;;;26.80;58.90;;;;;;5134657;27;21027;-79
2022/07/27 09:19:06;;;;;;;0.50;0.30;;;26.00;61.50;;;;;;5134672;27;20437;-80
2022/07/27 09:21:34;;;;;;;0.50;0.30;;;25.70;62.90;;;;;;5135254;27;20502;-81
2022/07/27 09:24:08;;;;;;;0.50;0.30;;;25.20;63.00;;;;;;5135308;27;20825;-82
2022/07/27 09:26:36;;;;;;;0.50;0.30;;;25.00;64.20;;;;;;5135722;27;20433;-78
2022/07/27 09:29:06;;;;;;;0.50;0.40;;;24.70;64.90;;;;;;5135445;27;20438;-82
2022/07/27 09:31:40;;;;;;;0.50;0.30;;;24.70;64.50;;;;;;5134841;27;20442;-83
2022/07/27 09:34:08;;;;;;;0.50;0.33;;;25.00;65.40;;;;;;5136064;27;20980;-82
2022/07/27 09:36:51;;;;;;;0.50;0.30;;;25.40;65.10;;;;;;5136227;27;20526;-82
2022/07/27 09:39:19;;;;;;;0.50;0.30;;;25.30;63.50;;;;;;5135562;27;20876;-78
2022/07/27 09:41:48;;;;;;;0.50;0.30;;;25.40;64.20;;;;;;5135816;27;20505;-81
2022/07/27 09:44:15;;;;;;;0.50;0.30;;;26.00;63.50;;;;;;5135378;27;20458;-80
2022/07/27 09:46:47;;;;;;;0.50;0.30;;;26.60;61.60;;;;;;5129167;27;20501;-78
2022/07/27 09:49:28;;;;;;;0.50;0.30;;;26.90;59.70;;;;;;5126577;28;21117;-78
2022/07/27 09:51:56;;;;;;;0.50;0.30;;;28.60;59.40;;;;;;5136630;27;20414;-80
2022/07/27 09:54:24;;;;;;;0.67;0.60;;;28.80;58.80;;;;;;5143656;27;20454;-84
2022/07/27 09:57:00;;;;;;;0.50;0.40;;;29.40;58.00;;;;;;5143544;27;20469;-81
2022/07/27 09:59:27;;;;;;;0.50;0.30;;;28.70;57.40;;;;;;5146127;27;20448;-83
2022/07/27 10:01:55;;;;;;;0.50;0.30;;;28.20;57.80;;;;;;5139111;27;20521;-81
2022/07/27 10:04:22;;;;;;;0.50;0.30;;;27.40;57.60;;;;;;5125101;28;20864;-81
2022/07/27 10:06:52;;;;;;;0.50;0.30;;;26.30;58.50;;;;;;5124141;28;20454;-81
2022/07/27 10:09:19;;;;;;;0.50;0.40;;;25.90;61.30;;;;;;5123714;28;20427;-78
2022/07/27 10:11:48;;;;;;;0.50;0.30;;;25.40;61.70;;;;;;5126487;28;20433;-81
2022/07/27 10:14:15;;;;;;;0.50;0.30;;;24.90;61.10;;;;;;5126342;28;20993;-81
2022/07/27 10:16:47;;;;;;;0.50;0.30;;;24.80;63.00;;;;;;5128133;28;20549;-83
2022/07/27 10:19:18;;;;;;;0.50;0.40;;;25.20;63.80;;;;;;5127619;28;20419;-83
2022/07/27 10:21:46;;;;;;;0.50;0.30;;;25.80;61.80;;;;;;5127972;27;20828;-82
2022/07/27 10:24:27;;;;;;;0.50;0.30;;;26.30;58.90;;;;;;5127496;28;20458;-81
2022/07/27 10:26:55;;;;;;;0.50;0.30;;;27.20;58.80;;;;;;5128388;28;20490;-81
2022/07/27 10:29:23;;;;;;;0.50;0.30;;;28.00;56.90;;;;;;5127299;28;20501;-81
2022/07/27 10:32:00;;;;;;;0.50;0.30;;;29.00;53.60;;;;;;5122741;28;20469;-80
2022/07/27 10:34:36;;;;;;;0.50;0.30;;;29.70;54.10;;;;;;5124540;28;20462;-80
2022/07/27 10:37:11;;;;;;;0.50;0.30;;;30.60;54.30;;;;;;5123623;28;20561;-80
2022/07/27 10:39:41;;;;;;;0.50;0.30;;;32.40;50.60;;;;;;5122703;28;20603;-82
2022/07/27 10:42:30;;;;;;;0.50;0.30;;;33.60;47.30;;;;;;5122562;28;20421;-78
2022/07/27 10:45:03;;;;;;;0.50;0.30;;;33.40;48.40;;;;;;5121537;27;20473;-81
2022/07/27 10:47:39;;;;;;;0.50;0.30;;;32.50;49.10;;;;;;5122893;28;20458;-81
2022/07/27 10:50:30;;;;;;;0.50;0.30;;;33.00;50.50;;;;;;5122779;28;20445;-82
2022/07/27 10:53:08;;;;;;;0.50;0.30;;;32.90;49.50;;;;;;5121998;28;20455;-79
2022/07/27 10:55:47;;;;;;;0.50;0.30;;;32.40;50.10;;;;;;5123779;28;20542;-82
2022/07/27 10:58:49;;;;;;;0.50;0.30;;;30.30;49.00;;;;;;5126107;28;20531;-80
2022/07/27 11:01:17;;;;;;;0.50;0.30;;;29.70;51.90;;;;;;5125832;28;20946;-82
2022/07/27 11:03:55;;;;;;;0.50;0.30;;;29.30;52.80;;;;;;5126191;28;20473;-81
2022/07/27 11:06:30;;;;;;;0.50;0.30;;;28.70;52.40;;;;;;5125338;28;20447;-81
2022/07/27 11:08:58;;;;;;;0.50;0.30;;;28.20;51.70;;;;;;5124295;28;20499;-81
2022/07/27 11:11:27;;;;;;;0.50;0.30;;;28.90;52.80;;;;;;5124575;28;20526;-81
2022/07/27 11:13:56;;;;;;;0.50;0.30;;;29.70;52.10;;;;;;5123506;28;20485;-82
2022/07/27 11:16:24;;;;;;;0.50;0.30;;;29.90;51.80;;;;;;5122320;28;20462;-83
2022/07/27 11:18:54;;;;;;;0.50;0.30;;;30.20;51.70;;;;;;5122965;28;20439;-79
2022/07/27 11:21:23;;;;;;;0.50;0.30;;;30.80;53.00;;;;;;5121254;28;20450;-80
2022/07/27 11:23:52;;;;;;;0.50;0.30;;;31.40;50.00;;;;;;5122307;28;21007;-79
2022/07/27 11:26:20;;;;;;;0.50;0.30;;;30.90;49.40;;;;;;5122206;28;20430;-80
2022/07/27 11:28:48;;;;;;;0.50;0.30;;;30.40;50.20;;;;;;5124681;28;20462;-82
2022/07/27 11:31:15;;;;;;;0.50;0.30;;;29.60;50.10;;;;;;5125642;28;20464;-82
2022/07/27 11:33:57;;;;;;;0.50;0.30;;;28.60;50.70;;;;;;5124471;28;20450;-79
2022/07/27 11:36:36;;;;;;;0.50;0.30;;;28.40;50.60;;;;;;5125156;28;20484;-81
2022/07/27 11:39:06;;;;;;;3.03;0.70;;;28.30;52.10;;;;;;5124515;28;20480;-84
2022/07/27 11:41:35;;;;;;;0.50;0.30;;;29.00;52.90;;;;;;5121375;28;21026;-84
2022/07/27 11:44:05;;;;;;;0.50;0.30;;;30.70;50.80;;;;;;5121985;28;20449;-80
2022/07/27 11:46:33;;;;;;;0.50;0.30;;;32.70;50.30;;;;;;5123309;28;20462;-82
2022/07/27 11:49:02;;;;;;;0.50;0.30;;;33.80;45.40;;;;;;5121419;28;20470;-83
2022/07/27 11:51:29;;;;;;;0.50;0.30;;;33.90;44.40;;;;;;5122918;28;20427;-80
2022/07/27 11:53:58;;;;;;;0.50;0.30;;;33.80;44.40;;;;;;5121504;28;20537;-82
2022/07/27 11:56:26;;;;;;;0.50;0.30;;;33.90;45.40;;;;;;5121885;28;20506;-80
2022/07/27 11:59:10;;;;;;;0.63;0.63;;;34.20;44.10;;;;;;5122417;28;20799;-80
2022/07/27 12:01:40;;;;;;;0.50;0.30;;;34.60;44.00;;;;;;5122130;28;20477;-81
2022/07/27 12:04:11;;;;;;;0.50;0.30;;;35.10;43.80;;;;;;5126135;28;20478;-84
2022/07/27 12:06:39;;;;;;;0.50;0.30;;;35.40;44.50;;;;;;5124924;28;20445;-81
2022/07/27 12:09:09;;;;;;;0.60;0.60;;;36.10;43.40;;;;;;5123875;28;20450;-82
2022/07/27 12:11:52;;;;;;;0.50;0.30;;;36.50;41.50;;;;;;5125712;28;20443;-82
2022/07/27 12:14:34;;;;;;;0.50;0.30;;;35.70;40.60;;;;;;5124025;28;21014;-81
2022/07/27 12:17:12;;;;;;;0.50;0.30;;;34.90;42.30;;;;;;5125381;28;20454;-85
2022/07/27 12:19:39;;;;;;;0.50;0.30;;;33.70;42.50;;;;;;5128967;28;20466;-84
2022/07/27 12:22:06;;;;;;;0.50;0.30;;;32.50;44.20;;;;;;5129710;28;20473;-84
2022/07/27 12:24:35;;;;;;;0.50;0.30;;;30.90;44.90;;;;;;5129660;28;20493;-83
2022/07/27 12:27:08;;;;;;;0.50;0.30;;;29.70;47.20;;;;;;5130876;28;20502;-84
2022/07/27 12:30:11;;;;;;;0.70;0.70;;;28.70;48.40;;;;;;5130143;28;20427;-84
2022/07/27 12:32:41;;;;;;;0.63;0.63;;;28.70;49.90;;;;;;5129367;28;20454;-82
2022/07/27 12:35:20;;;;;;;0.50;0.30;;;28.50;49.00;;;;;;5129947;28;20437;-83
2022/07/27 12:37:48;;;;;;;0.50;0.30;;;28.40;50.20;;;;;;5130710;28;20426;-84
2022/07/27 12:40:16;;;;;;;0.50;0.30;;;28.20;51.00;;;;;;5130475;28;20448;-82
2022/07/27 12:42:43;;;;;;;0.50;0.30;;;27.60;50.30;;;;;;5129120;28;20478;-83
2022/07/27 12:45:17;;;;;;;0.50;0.30;;;27.00;50.50;;;;;;5130541;28;20469;-83
2022/07/27 12:47:44;;;;;;;0.50;0.30;;;26.90;51.60;;;;;;5135114;28;20430;-84
2022/07/27 12:50:13;;;;;;;0.50;0.30;;;27.60;53.30;;;;;;5132501;28;20430;-83
2022/07/27 12:52:43;;;;;;;0.50;0.30;;;28.80;49.70;;;;;;5129807;28;20458;-84
2022/07/27 12:55:10;;;;;;;0.50;0.30;;;30.30;50.00;;;;;;5128711;28;20450;-84
2022/07/27 12:57:38;;;;;;;0.50;0.30;;;31.50;49.70;;;;;;5127550;28;20549;-84
2022/07/27 13:00:07;;;;;;;0.50;0.30;;;31.40;48.40;;;;;;5128327;28;20503;-83